createdAt,value
2022-10-17T00:00:48.238Z,6.33
2022-10-17T00:03:15.100Z,5.87
2022-10-17T00:05:45.811Z,4.80
2022-10-17T00:08:14.717Z,5.40
2022-10-17T00:10:41.448Z,3.75
2022-10-17T00:13:10.670Z,3.47
2022-10-17T00:15:37.167Z,7.75
2022-10-17T00:18:08.017Z,4.53
2022-10-17T00:20:37.696Z,5.50
2022-10-17T00:23:04.477Z,5.18
2022-10-17T00:25:31.022Z,5.20
2022-10-17T00:27:58.051Z,7.15
2022-10-17T00:30:25.167Z,4.97
2022-10-17T00:32:51.782Z,4.30
2022-10-17T00:35:18.850Z,3.38
2022-10-17T00:37:45.422Z,9.00
2022-10-17T00:40:12.554Z,4.20
2022-10-17T00:42:39.869Z,4.30
2022-10-17T00:45:20.061Z,7.95
2022-10-17T00:47:50.215Z,4.78
2022-10-17T00:50:20.267Z,5.15
2022-10-17T00:52:49.103Z,5.47
2022-10-17T00:55:21.698Z,8.48
2022-10-17T00:57:50.474Z,8.60
2022-10-17T01:00:19.605Z,9.23
2022-10-17T01:02:46.829Z,12.95
2022-10-17T01:05:15.713Z,9.95
2022-10-17T01:07:43.416Z,8.83
2022-10-17T01:10:11.107Z,6.07
2022-10-17T01:12:47.255Z,8.02
2022-10-17T01:15:35.784Z,20.80
2022-10-17T01:18:14.631Z,9.53
2022-10-17T01:20:58.950Z,7.07
2022-10-17T01:24:11.439Z,7.63
2022-10-17T01:27:06.804Z,7.07
2022-10-17T01:29:57.589Z,5.30
2022-10-17T01:32:38.999Z,5.53
2022-10-17T01:36:03.264Z,6.63
2022-10-17T01:38:43.512Z,7.23
2022-10-17T01:41:42.469Z,6.67
2022-10-17T01:44:26.077Z,7.10
2022-10-17T01:47:00.420Z,11.40
2022-10-17T01:49:30.029Z,8.43
2022-10-17T01:52:22.700Z,14.07
2022-10-17T01:54:55.440Z,10.60
2022-10-17T01:57:49.321Z,11.23
2022-10-17T02:00:21.084Z,8.07
2022-10-17T02:02:56.845Z,8.30
2022-10-17T02:05:28.388Z,9.37
2022-10-17T02:07:55.097Z,9.50
2022-10-17T02:10:34.675Z,9.03
2022-10-17T02:13:05.890Z,9.17
2022-10-17T02:16:05.107Z,11.57
2022-10-17T02:19:07.005Z,11.30
2022-10-17T02:21:41.008Z,11.47
2022-10-17T02:24:33.548Z,8.90
2022-10-17T02:27:08.883Z,8.33
2022-10-17T02:29:43.808Z,9.27
2022-10-17T02:32:27.469Z,8.13
2022-10-17T02:34:57.205Z,9.87
2022-10-17T02:37:29.414Z,10.47
2022-10-17T02:39:59.086Z,8.77
2022-10-17T02:42:27.736Z,6.33
2022-10-17T02:45:01.440Z,7.33
2022-10-17T02:47:50.063Z,9.37
2022-10-17T02:50:17.003Z,5.87
2022-10-17T02:52:55.779Z,13.57
2022-10-17T02:55:32.730Z,8.23
2022-10-17T02:58:05.942Z,11.30
2022-10-17T03:00:33.178Z,9.50
2022-10-17T03:03:00.400Z,9.33
2022-10-17T03:05:29.653Z,9.60
2022-10-17T03:07:57.081Z,8.50
2022-10-17T03:10:24.675Z,13.00
2022-10-17T03:12:52.542Z,7.53
2022-10-17T03:15:19.791Z,4.97
2022-10-17T03:17:47.059Z,11.70
2022-10-17T03:20:14.615Z,6.03
2022-10-17T03:22:41.684Z,7.53
2022-10-17T03:25:10.816Z,8.10
2022-10-17T03:27:38.039Z,6.57
2022-10-17T03:30:05.230Z,8.50
2022-10-17T03:32:34.765Z,9.67
2022-10-17T03:35:01.479Z,7.05
2022-10-17T03:37:28.636Z,14.30
2022-10-17T03:39:56.006Z,9.67
2022-10-17T03:42:22.980Z,6.93
2022-10-17T03:44:49.612Z,4.67
2022-10-17T03:47:17.351Z,11.13
2022-10-17T03:49:46.941Z,7.37
2022-10-17T03:52:15.175Z,7.03
2022-10-17T03:54:42.000Z,6.63
2022-10-17T03:57:08.894Z,8.73
2022-10-17T03:59:36.306Z,9.93
2022-10-17T04:02:07.985Z,7.13
2022-10-17T04:04:35.519Z,4.17
2022-10-17T04:07:04.332Z,4.70
2022-10-17T04:09:33.228Z,6.25
2022-10-17T04:12:05.989Z,4.93
2022-10-17T04:14:34.759Z,8.75
2022-10-17T04:17:02.870Z,6.90
2022-10-17T04:19:30.854Z,5.82
2022-10-17T04:21:58.624Z,5.32
2022-10-17T04:24:28.100Z,6.63
2022-10-17T04:27:04.980Z,5.03
2022-10-17T04:29:35.706Z,7.90
2022-10-17T04:32:08.603Z,6.03
2022-10-17T04:34:42.225Z,6.00
2022-10-17T04:37:09.044Z,6.67
2022-10-17T04:39:37.118Z,5.90
2022-10-17T04:42:03.772Z,6.60
2022-10-17T04:44:31.102Z,6.33
2022-10-17T04:46:58.622Z,7.23
2022-10-17T04:49:26.318Z,6.07
2022-10-17T04:51:56.967Z,6.37
2022-10-17T04:54:36.292Z,7.57
2022-10-17T04:57:07.620Z,6.33
2022-10-17T04:59:35.916Z,10.20
2022-10-17T05:02:15.744Z,6.30
2022-10-17T05:04:43.721Z,6.07
2022-10-17T05:07:11.675Z,6.70
2022-10-17T05:09:47.651Z,3.57
2022-10-17T05:12:15.182Z,5.33
2022-10-17T05:14:44.551Z,6.67
2022-10-17T05:17:11.190Z,5.22
2022-10-17T05:19:38.516Z,7.20
2022-10-17T05:22:08.837Z,6.73
2022-10-17T05:24:35.418Z,7.27
2022-10-17T05:27:02.028Z,6.77
2022-10-17T05:29:28.734Z,5.83
2022-10-17T05:32:05.300Z,6.10
2022-10-17T05:34:34.359Z,7.03
2022-10-17T05:37:00.886Z,4.67
2022-10-17T05:39:27.644Z,4.27
2022-10-17T05:41:55.690Z,5.57
2022-10-17T05:44:22.493Z,9.17
2022-10-17T05:46:54.296Z,4.83
2022-10-17T05:49:32.982Z,6.37
2022-10-17T05:52:10.218Z,8.33
2022-10-17T05:54:50.954Z,7.97
2022-10-17T05:57:17.890Z,8.50
2022-10-17T05:59:44.448Z,5.93
2022-10-17T06:02:13.911Z,8.70
2022-10-17T06:04:45.430Z,5.93
2022-10-17T06:07:14.126Z,8.63
2022-10-17T06:09:43.136Z,7.13
2022-10-17T06:12:10.620Z,4.70
2022-10-17T06:14:37.331Z,5.40
2022-10-17T06:17:12.085Z,8.63
2022-10-17T06:19:41.740Z,7.23
2022-10-17T06:22:08.674Z,3.40
2022-10-17T06:24:36.684Z,8.17
2022-10-17T06:27:10.809Z,6.40
2022-10-17T06:29:40.724Z,7.97
2022-10-17T06:32:11.309Z,4.57
2022-10-17T06:34:42.075Z,6.67
2022-10-17T06:37:09.615Z,4.90
2022-10-17T06:39:38.164Z,6.63
2022-10-17T06:42:13.567Z,5.60
2022-10-17T06:45:10.998Z,6.77
2022-10-17T06:47:56.394Z,5.37
2022-10-17T06:50:53.294Z,6.30
2022-10-17T06:53:30.978Z,7.50
2022-10-17T06:56:25.296Z,6.90
2022-10-17T06:59:07.441Z,3.50
2022-10-17T07:01:35.611Z,5.47
2022-10-17T07:04:04.686Z,6.05
2022-10-17T07:06:31.862Z,2.75
2022-10-17T07:09:07.056Z,10.35
2022-10-17T07:11:36.949Z,9.60
2022-10-17T07:14:03.791Z,3.70
2022-10-17T07:16:30.633Z,4.22
2022-10-17T07:19:04.665Z,6.30
2022-10-17T07:21:38.260Z,6.88
2022-10-17T07:24:08.165Z,8.82
2022-10-17T07:26:35.309Z,7.80
2022-10-17T07:29:02.687Z,6.22
2022-10-17T07:31:34.372Z,6.97
2022-10-17T07:34:01.747Z,7.00
2022-10-17T07:36:29.225Z,5.57
2022-10-17T07:38:57.222Z,4.40
2022-10-17T07:41:25.475Z,8.05
2022-10-17T07:43:52.828Z,4.45
2022-10-17T07:46:28.714Z,12.65
2022-10-17T07:48:56.432Z,9.25
2022-10-17T07:51:23.550Z,4.70
2022-10-17T07:53:50.355Z,4.35
2022-10-17T07:56:17.302Z,9.85
2022-10-17T07:58:46.046Z,7.63
2022-10-17T08:01:16.113Z,5.53
2022-10-17T08:03:45.043Z,11.65
2022-10-17T08:06:12.672Z,9.32
2022-10-17T08:08:39.463Z,7.45
2022-10-17T08:11:10.472Z,6.47
2022-10-17T08:13:38.056Z,9.93
2022-10-17T08:16:08.464Z,11.10
2022-10-17T08:18:37.084Z,6.53
2022-10-17T08:21:06.500Z,5.50
2022-10-17T08:23:33.270Z,5.07
2022-10-17T08:26:01.222Z,2.83
2022-10-17T08:28:28.525Z,3.90
2022-10-17T08:31:09.251Z,5.07
2022-10-17T08:33:36.348Z,3.80
2022-10-17T08:36:06.766Z,4.63
2022-10-17T08:38:35.746Z,3.38
2022-10-17T08:41:06.951Z,4.82
2022-10-17T08:43:48.716Z,5.85
2022-10-17T08:48:46.488Z,2.50
2022-10-17T08:51:21.594Z,6.03
2022-10-17T08:54:17.509Z,3.40
2022-10-17T08:56:50.333Z,2.30
2022-10-17T08:59:30.259Z,5.60
2022-10-17T09:02:16.117Z,5.15
2022-10-17T09:05:23.908Z,2.95
2022-10-17T09:08:31.901Z,3.38
2022-10-17T09:11:20.868Z,5.07
2022-10-17T09:14:17.688Z,4.93
2022-10-17T09:17:17.118Z,5.35
2022-10-17T09:19:54.030Z,4.80
2022-10-17T09:22:26.934Z,4.68
2022-10-17T09:24:59.294Z,2.45
2022-10-17T09:28:18.305Z,5.57
2022-10-17T09:30:50.045Z,3.72
2022-10-17T09:33:35.243Z,5.22
2022-10-17T09:36:14.681Z,3.40
2022-10-17T09:38:44.344Z,3.75
2022-10-17T09:41:44.128Z,2.65
2022-10-17T09:44:31.148Z,3.70
2022-10-17T09:47:20.101Z,4.55
2022-10-17T09:49:48.759Z,1.98
2022-10-17T09:52:35.872Z,3.55
2022-10-17T09:55:18.033Z,3.85
2022-10-17T09:58:14.645Z,1.60
2022-10-17T10:00:44.034Z,4.03
2022-10-17T10:03:13.062Z,2.28
2022-10-17T10:05:46.979Z,2.33
2022-10-17T10:08:19.600Z,3.90
2022-10-17T10:10:46.637Z,2.80
2022-10-17T10:13:13.048Z,4.68
2022-10-17T10:15:48.721Z,1.73
2022-10-17T10:18:36.427Z,2.97
2022-10-17T10:21:07.065Z,4.65
2022-10-17T10:23:35.180Z,4.47
2022-10-17T10:26:04.321Z,8.05
2022-10-17T10:28:36.617Z,4.40
2022-10-17T10:31:08.971Z,3.83
2022-10-17T10:33:45.789Z,5.95
2022-10-17T10:36:14.994Z,4.22
2022-10-17T10:38:42.784Z,2.72
2022-10-17T10:41:11.334Z,5.38
2022-10-17T10:43:49.140Z,6.65
2022-10-17T10:46:26.622Z,3.80
2022-10-17T10:48:58.456Z,4.15
2022-10-17T10:51:32.959Z,4.13
2022-10-17T10:54:15.879Z,4.05
2022-10-17T10:56:48.791Z,3.47
2022-10-17T10:59:26.647Z,3.65
2022-10-17T11:02:15.681Z,4.22
2022-10-17T11:05:14.823Z,5.13
2022-10-17T11:08:01.444Z,5.00
2022-10-17T11:10:44.497Z,2.90
2022-10-17T11:13:26.517Z,2.45
2022-10-17T11:15:59.689Z,3.22
2022-10-17T11:18:33.741Z,3.70
2022-10-17T11:21:13.778Z,4.55
2022-10-17T11:23:54.968Z,4.35
2022-10-17T11:26:35.362Z,3.95
2022-10-17T11:29:07.952Z,3.33
2022-10-17T11:31:39.167Z,4.20
2022-10-17T11:34:36.971Z,5.60
2022-10-17T11:37:12.281Z,3.13
2022-10-17T11:43:13.447Z,3.75
2022-10-17T11:45:48.048Z,5.00
2022-10-17T11:48:23.481Z,7.93
2022-10-17T11:54:13.028Z,12.07
2022-10-17T11:56:50.933Z,3.95
2022-10-17T11:59:37.689Z,4.53
2022-10-17T12:02:50.921Z,6.10
2022-10-17T12:05:58.115Z,3.40
2022-10-17T12:08:52.447Z,6.85
2022-10-17T12:11:35.314Z,3.80
2022-10-17T12:14:05.770Z,7.05
2022-10-17T12:16:35.776Z,3.10
2022-10-17T12:19:02.319Z,3.80
2022-10-17T12:21:49.198Z,3.53
2022-10-17T12:24:38.265Z,4.32
2022-10-17T12:27:38.691Z,5.40
2022-10-17T12:30:17.316Z,6.28
2022-10-17T12:33:06.124Z,4.30
2022-10-17T12:35:36.011Z,3.78
2022-10-17T12:38:23.126Z,3.35
2022-10-17T12:40:56.624Z,4.55
2022-10-17T12:43:30.955Z,6.90
2022-10-17T12:46:00.076Z,5.93
2022-10-17T12:48:33.176Z,6.65
2022-10-17T12:51:30.793Z,4.57
2022-10-17T12:53:59.798Z,4.32
2022-10-17T12:56:41.281Z,4.45
2022-10-17T12:59:14.760Z,4.82
2022-10-17T13:01:46.305Z,7.80
2022-10-17T13:04:15.524Z,7.28
2022-10-17T13:06:48.101Z,6.40
2022-10-17T13:09:25.050Z,5.35
2022-10-17T13:11:52.350Z,5.78
2022-10-17T13:14:21.371Z,7.20
2022-10-17T13:16:59.234Z,8.35
2022-10-17T13:19:31.616Z,5.38
2022-10-17T13:22:07.179Z,3.22
2022-10-17T13:24:41.026Z,6.22
2022-10-17T13:27:32.672Z,4.88
2022-10-17T13:30:02.850Z,7.70
2022-10-17T13:32:38.625Z,5.68
2022-10-17T13:35:11.388Z,10.70
2022-10-17T13:37:41.557Z,5.05
2022-10-17T13:40:44.135Z,5.10
2022-10-17T13:43:06.299Z,7.07
2022-10-17T13:45:37.269Z,5.32
2022-10-17T13:48:17.649Z,5.90
2022-10-17T13:50:50.431Z,3.85
2022-10-17T13:53:51.535Z,2.95
2022-10-17T13:56:28.266Z,5.28
2022-10-17T13:59:03.579Z,6.53
2022-10-17T14:01:31.305Z,5.43
2022-10-17T14:04:09.506Z,4.85
2022-10-17T14:06:49.745Z,3.85
2022-10-17T14:09:30.642Z,5.75
2022-10-17T14:12:07.200Z,6.28
2022-10-17T14:14:51.644Z,5.53
2022-10-17T14:17:27.696Z,6.10
2022-10-17T14:20:34.459Z,5.25
2022-10-17T14:23:17.429Z,7.38
2022-10-17T14:25:40.305Z,5.85
2022-10-17T14:28:14.415Z,6.07
2022-10-17T14:31:01.427Z,5.88
2022-10-17T14:33:31.103Z,4.40
2022-10-17T14:36:00.250Z,4.50
2022-10-17T14:38:29.308Z,7.97
2022-10-17T14:41:42.530Z,7.15
2022-10-17T14:44:19.053Z,6.18
2022-10-17T14:46:50.682Z,5.55
2022-10-17T14:49:25.150Z,5.22
2022-10-17T14:52:18.578Z,6.95
2022-10-17T14:54:49.981Z,5.60
2022-10-17T14:57:25.798Z,5.93
2022-10-17T14:59:56.368Z,5.65
2022-10-17T15:02:25.236Z,4.63
2022-10-17T15:04:52.190Z,4.03
2022-10-17T15:07:19.487Z,7.70
2022-10-17T15:09:48.834Z,4.15
2022-10-17T15:12:19.291Z,4.25
2022-10-17T15:14:47.870Z,4.30
2022-10-17T15:17:18.612Z,5.40
2022-10-17T15:19:45.215Z,4.43
2022-10-17T15:22:11.776Z,5.90
2022-10-17T15:24:38.905Z,5.80
2022-10-17T15:27:20.298Z,7.13
2022-10-17T15:29:48.071Z,3.47
2022-10-17T15:32:16.327Z,3.20
2022-10-17T15:34:44.278Z,6.75
2022-10-17T15:37:20.109Z,6.07
2022-10-17T15:39:52.988Z,6.30
2022-10-17T15:42:27.867Z,8.05
2022-10-17T15:44:55.760Z,5.80
2022-10-17T15:47:37.501Z,7.93
2022-10-17T15:50:06.186Z,8.55
2022-10-17T15:52:33.316Z,9.63
2022-10-17T15:55:02.552Z,7.45
2022-10-17T15:57:36.060Z,5.05
2022-10-17T16:00:04.273Z,4.45
2022-10-17T16:02:36.209Z,9.82
2022-10-17T16:05:06.231Z,8.57
2022-10-17T16:07:32.989Z,5.93
2022-10-17T16:09:59.682Z,7.80
2022-10-17T16:12:29.139Z,4.65
2022-10-17T16:14:56.606Z,8.48
2022-10-17T16:17:23.395Z,6.18
2022-10-17T16:19:50.140Z,11.20
2022-10-17T16:22:25.723Z,6.50
2022-10-17T16:24:58.514Z,7.82
2022-10-17T16:27:26.526Z,9.48
2022-10-17T16:29:53.201Z,10.07
2022-10-17T16:32:19.705Z,10.80
2022-10-17T16:34:46.214Z,13.25
2022-10-17T16:37:15.465Z,11.45
2022-10-17T16:39:42.034Z,7.43
2022-10-17T16:42:08.750Z,11.93
2022-10-17T16:44:35.358Z,8.02
2022-10-17T16:47:03.108Z,11.05
2022-10-17T16:49:29.658Z,10.20
2022-10-17T16:51:56.682Z,13.15
2022-10-17T16:54:23.447Z,17.30
2022-10-17T16:56:50.748Z,17.02
2022-10-17T16:59:17.295Z,18.10
2022-10-17T17:01:44.035Z,15.90
2022-10-17T17:04:10.643Z,16.40
2022-10-17T17:06:37.562Z,13.35
2022-10-17T17:09:04.874Z,13.80
2022-10-17T17:11:32.615Z,15.65
2022-10-17T17:14:02.708Z,8.43
2022-10-17T17:16:32.365Z,9.98
2022-10-17T17:19:01.982Z,24.45
2022-10-17T17:21:29.199Z,19.83
2022-10-17T17:23:58.279Z,15.43
2022-10-17T17:26:26.877Z,10.65
2022-10-17T17:28:54.250Z,17.23
2022-10-17T17:31:23.528Z,8.10
2022-10-17T17:33:51.471Z,13.82
2022-10-17T17:36:21.237Z,10.80
2022-10-17T17:38:49.377Z,15.48
2022-10-17T17:41:18.884Z,9.05
2022-10-17T17:43:46.868Z,11.38
2022-10-17T17:46:16.517Z,10.57
2022-10-17T17:48:48.545Z,13.95
2022-10-17T17:51:20.014Z,12.60
2022-10-17T17:53:47.403Z,14.35
2022-10-17T17:56:20.656Z,11.85
2022-10-17T17:58:57.387Z,11.70
2022-10-17T18:01:26.165Z,12.20
2022-10-17T18:03:55.588Z,12.50
2022-10-17T18:06:23.264Z,11.60
2022-10-17T18:08:56.050Z,12.95
2022-10-17T18:11:23.234Z,15.82
2022-10-17T18:13:57.750Z,10.40
2022-10-17T18:16:26.154Z,13.48
2022-10-17T18:18:52.763Z,18.27
2022-10-17T18:21:19.763Z,11.43
2022-10-17T18:23:47.975Z,10.75
2022-10-17T18:26:17.183Z,10.32
2022-10-17T18:28:44.449Z,11.50
2022-10-17T18:31:15.382Z,9.48
2022-10-17T18:33:42.929Z,12.55
2022-10-17T18:36:12.202Z,14.15
2022-10-17T18:38:39.169Z,12.68
2022-10-17T18:41:14.163Z,11.98
2022-10-17T18:43:43.774Z,12.52
2022-10-17T18:46:16.150Z,10.82
2022-10-17T18:48:44.918Z,14.13
2022-10-17T18:51:13.370Z,10.95
2022-10-17T18:53:45.567Z,9.80
2022-10-17T18:56:13.047Z,10.90
2022-10-17T18:58:40.527Z,9.02
2022-10-17T19:01:10.399Z,11.98
2022-10-17T19:03:38.476Z,23.50
2022-10-17T19:06:09.400Z,16.23
2022-10-17T19:08:37.323Z,17.15
2022-10-17T19:11:07.423Z,10.00
2022-10-17T19:13:34.923Z,15.73
2022-10-17T19:16:10.353Z,9.70
2022-10-17T19:18:37.753Z,13.75
2022-10-17T19:21:06.771Z,12.57
2022-10-17T19:23:36.125Z,8.25
2022-10-17T19:26:09.204Z,13.13
2022-10-17T19:28:38.145Z,11.52
2022-10-17T19:31:06.508Z,12.70
2022-10-17T19:33:33.611Z,13.05
2022-10-17T19:36:13.614Z,12.13
2022-10-17T19:38:40.316Z,11.48
2022-10-17T19:41:09.448Z,13.82
2022-10-17T19:43:38.254Z,8.80
2022-10-17T19:46:07.301Z,15.27
2022-10-17T19:48:39.441Z,10.00
2022-10-17T19:51:08.261Z,13.68
2022-10-17T19:53:35.405Z,13.05
2022-10-17T19:56:02.577Z,9.63
2022-10-17T19:58:31.983Z,11.70
2022-10-17T20:01:02.926Z,12.55
2022-10-17T20:03:30.269Z,11.10
2022-10-17T20:05:56.882Z,12.65
2022-10-17T20:08:23.503Z,11.60
2022-10-17T20:10:50.743Z,14.43
2022-10-17T20:13:17.319Z,11.27
2022-10-17T20:15:54.348Z,8.40
2022-10-17T20:18:21.146Z,17.60
2022-10-17T20:20:48.766Z,14.27
2022-10-17T20:23:15.364Z,12.15
2022-10-17T20:25:43.010Z,13.30
2022-10-17T20:28:09.894Z,12.48
2022-10-17T20:30:37.188Z,14.50
2022-10-17T20:33:03.968Z,8.52
2022-10-17T20:35:31.740Z,9.13
2022-10-17T20:37:58.362Z,7.95
2022-10-17T20:40:40.463Z,10.80
2022-10-17T20:43:14.160Z,10.43
2022-10-17T20:45:51.005Z,12.25
2022-10-17T20:48:18.250Z,10.57
2022-10-17T20:50:44.732Z,13.38
2022-10-17T20:56:08.776Z,12.68
2022-10-17T20:58:36.091Z,10.00
2022-10-17T21:01:10.274Z,11.50
2022-10-17T21:03:43.896Z,10.43
2022-10-17T21:06:13.845Z,13.90
2022-10-17T21:08:40.527Z,13.52
2022-10-17T21:11:28.608Z,13.38
2022-10-17T21:13:58.156Z,12.00
2022-10-17T21:16:25.556Z,12.55
2022-10-17T21:18:52.134Z,11.77
2022-10-17T21:21:22.967Z,11.20
2022-10-17T21:23:50.971Z,10.35
2022-10-17T21:26:18.506Z,12.88
2022-10-17T21:28:46.594Z,19.95
2022-10-17T21:31:22.479Z,12.13
2022-10-17T21:33:56.862Z,10.20
2022-10-17T21:36:25.039Z,12.50
2022-10-17T21:38:53.262Z,13.35
2022-10-17T21:44:17.102Z,9.93
2022-10-17T21:46:44.249Z,12.90
2022-10-17T21:49:12.962Z,10.57
2022-10-17T21:51:40.487Z,11.82
2022-10-17T21:54:08.180Z,10.00
2022-10-17T21:56:35.530Z,10.52
2022-10-17T21:59:03.089Z,10.98
2022-10-17T22:01:32.969Z,10.95
2022-10-17T22:04:01.817Z,10.18
2022-10-17T22:06:40.326Z,11.25
2022-10-17T22:09:23.701Z,12.60
2022-10-17T22:11:56.472Z,10.05
2022-10-17T22:14:26.366Z,8.10
2022-10-17T22:16:53.172Z,9.43
2022-10-17T22:19:22.887Z,11.65
2022-10-17T22:21:50.553Z,10.13
2022-10-17T22:26:47.816Z,16.63
2022-10-17T22:29:15.126Z,10.23
2022-10-17T22:31:41.714Z,10.82
2022-10-17T22:34:11.049Z,13.23
2022-10-17T22:36:37.578Z,13.73
2022-10-17T22:39:04.180Z,12.63
2022-10-17T22:41:31.312Z,15.18
2022-10-17T22:44:00.300Z,8.48
2022-10-17T22:46:27.429Z,11.90
2022-10-17T22:48:54.179Z,8.55
2022-10-17T22:51:20.958Z,12.50
2022-10-17T22:53:47.641Z,11.90
2022-10-17T22:56:18.130Z,13.57
2022-10-17T22:58:45.117Z,12.93
2022-10-17T23:01:16.344Z,12.15
2022-10-17T23:03:43.236Z,10.70
2022-10-17T23:06:10.168Z,16.80
2022-10-17T23:08:36.752Z,14.27
2022-10-17T23:11:05.045Z,13.23
2022-10-17T23:13:31.824Z,11.00
2022-10-17T23:15:58.840Z,11.25
2022-10-17T23:18:27.662Z,11.52
2022-10-17T23:20:56.661Z,14.30
2022-10-17T23:23:23.405Z,14.23
2022-10-17T23:25:50.742Z,11.35
2022-10-17T23:28:21.334Z,13.77
2022-10-17T23:30:48.071Z,8.80
2022-10-17T23:33:14.821Z,14.55
2022-10-17T23:35:42.362Z,8.95
2022-10-17T23:38:09.913Z,11.77
2022-10-17T23:40:38.103Z,9.68
2022-10-17T23:43:28.848Z,9.80
2022-10-17T23:45:56.659Z,10.80
2022-10-17T23:48:23.911Z,6.90
2022-10-17T23:50:50.552Z,16.10
2022-10-17T23:53:17.606Z,8.30
2022-10-17T23:55:46.251Z,12.07
2022-10-17T23:58:12.951Z,13.15
